Time;durP1;ratioP1;P1;durP2;ratioP2;P2;SDS_P1;SDS_P2;PMS_P1;PMS_P2;Temp;Humidity;BMP_temperature;BMP_pressure;BME280_temperature;BME280_humidity;BME280_pressure;Samples;Min_cycle;Max_cycle;Signal;HPM_P1;HPM_P2
2021/03/07 00:00:35;;;;;;;22.73;12.07;;;;;;;4.77;49.27;102141.00;5083747;28;20044;-69
2021/03/07 00:03:05;;;;;;;20.95;12.57;;;;;;;4.53;49.92;102137.47;5083472;28;20059;-63
2021/03/07 00:05:33;;;;;;;25.48;12.40;;;;;;;4.73;49.79;102137.06;5083009;28;20051;-63
2021/03/07 00:08:01;;;;;;;17.77;11.93;;;;;;;4.63;49.58;102134.13;5083485;28;20044;-67
2021/03/07 00:10:29;;;;;;;23.08;12.93;;;;;;;4.75;49.77;102134.94;5064945;28;20052;-70
2021/03/07 00:12:56;;;;;;;20.20;12.77;;;;;;;4.46;50.06;102126.66;5064867;28;20056;-68
2021/03/07 00:15:26;;;;;;;22.08;13.13;;;;;;;4.43;50.39;102132.63;5082974;28;20389;-66
2021/03/07 00:17:53;;;;;;;19.08;12.82;;;;;;;4.58;50.29;102127.47;5082834;28;20055;-66
2021/03/07 00:20:22;;;;;;;20.75;13.40;;;;;;;4.50;50.02;102135.22;5081863;28;20052;-67
2021/03/07 00:22:49;;;;;;;21.10;12.65;;;;;;;4.43;50.36;102139.97;5082881;28;20207;-72
2021/03/07 00:25:17;;;;;;;20.90;12.75;;;;;;;4.52;50.30;102136.66;5082940;28;20252;-62
2021/03/07 00:27:51;;;;;;;24.38;13.60;;;;;;;4.33;50.84;102142.47;5065051;28;20052;-61
2021/03/07 00:30:18;;;;;;;19.33;12.45;;;;;;;4.35;50.70;102135.72;5081912;28;20056;-64
2021/03/07 00:32:46;;;;;;;20.23;12.00;;;;;;;4.39;50.45;102125.97;5064290;28;20052;-62
2021/03/07 00:35:13;;;;;;;18.92;12.40;;;;;;;4.15;50.65;102132.50;5082492;28;20051;-63
2021/03/07 00:37:45;;;;;;;26.63;12.88;;;;;;;4.10;51.19;102128.81;5082263;28;20048;-64
2021/03/07 00:40:14;;;;;;;18.90;11.90;;;;;;;4.42;50.63;102121.94;5081047;28;20056;-63
2021/03/07 00:42:47;;;;;;;19.77;12.48;;;;;;;4.33;50.45;102126.94;5082206;28;20048;-64
2021/03/07 00:45:16;;;;;;;20.25;12.60;;;;;;;4.43;50.19;102121.69;5064273;28;20047;-64
2021/03/07 00:47:43;;;;;;;17.98;11.70;;;;;;;4.50;50.18;102111.50;5062898;28;20051;-62
2021/03/07 00:50:21;;;;;;;21.25;12.55;;;;;;;4.21;50.53;102117.94;5081553;28;20055;-64
2021/03/07 00:52:56;;;;;;;24.13;12.77;;;;;;;4.25;50.62;102112.81;5082652;28;20052;-65
2021/03/07 00:55:24;;;;;;;21.88;12.98;;;;;;;4.18;50.76;102117.56;5063277;28;20055;-69
2021/03/07 00:57:51;;;;;;;21.83;12.90;;;;;;;4.26;50.67;102114.47;5063694;28;20055;-65
2021/03/07 01:00:24;;;;;;;20.95;12.18;;;;;;;4.41;50.46;102114.84;5081668;28;20067;-67
2021/03/07 01:02:57;;;;;;;22.13;12.55;;;;;;;4.55;49.84;102113.50;5084317;28;20044;-67
2021/03/07 01:05:30;;;;;;;20.90;12.60;;;;;;;4.54;49.91;102112.69;5083043;28;20060;-68
2021/03/07 01:07:57;;;;;;;21.42;12.68;;;;;;;4.88;48.99;102107.38;5084431;28;20044;-63
2021/03/07 01:10:35;;;;;;;28.23;12.40;;;;;;;4.66;49.53;102109.09;5051724;28;909811;-70
2021/03/07 01:13:05;;;;;;;21.05;12.60;;;;;;;4.80;49.28;102107.75;5083411;28;20032;-64
2021/03/07 01:15:32;;;;;;;;;;;;;;;4.39;49.42;102104.13;5080655;28;20048;-64
2021/03/07 01:18:00;;;;;;;19.73;11.38;;;;;;;4.18;50.08;102110.22;5081499;28;19920;-67
2021/03/07 01:20:28;;;;;;;19.35;11.93;;;;;;;3.93;51.11;102106.06;5047704;28;20406;-67
2021/03/07 01:22:57;;;;;;;18.33;11.55;;;;;;;4.23;50.17;102095.88;5065097;28;20206;-69
2021/03/07 01:25:28;;;;;;;19.95;12.10;;;;;;;4.18;50.50;102102.06;5083016;28;20047;-69
2021/03/07 01:27:55;;;;;;;17.75;11.10;;;;;;;4.59;49.86;102101.88;5083284;28;20047;-69
2021/03/07 01:30:24;;;;;;;18.88;11.50;;;;;;;4.70;48.96;102105.66;5065189;28;20050;-69
2021/03/07 01:32:51;;;;;;;22.08;12.00;;;;;;;4.26;50.45;102098.13;5066105;28;20044;-68
2021/03/07 01:35:19;;;;;;;20.70;11.70;;;;;;;4.18;50.37;102104.78;5084068;28;20050;-70
2021/03/07 01:37:46;;;;;;;18.38;11.93;;;;;;;3.97;50.80;102105.38;5084248;28;20051;-69
2021/03/07 01:40:20;;;;;;;27.50;12.00;;;;;;;3.79;51.62;102100.00;5065756;28;20052;-65
2021/03/07 01:47:09;;;;;;;21.08;12.27;;;;;;;3.89;50.84;102096.72;5082416;28;20040;-68
2021/03/07 01:49:39;;;;;;;21.13;12.43;;;;;;;3.55;52.08;102087.41;5083167;28;20036;-67
2021/03/07 01:52:06;;;;;;;20.45;11.27;;;;;;;3.61;51.63;102088.38;5083132;28;20058;-68
2021/03/07 01:54:33;;;;;;;18.15;11.75;;;;;;;3.61;51.92;102091.91;5065130;28;20059;-66
2021/03/07 02:01:38;;;;;;;17.58;11.32;;;;;;;3.79;51.33;102078.19;5081642;28;20043;-68
2021/03/07 02:04:05;;;;;;;21.98;11.93;;;;;;;3.95;51.03;102068.50;5065204;28;20059;-73
2021/03/07 02:06:33;;;;;;;22.63;12.65;;;;;;;3.89;51.11;102073.00;5083191;28;20379;-63
2021/03/07 02:09:00;;;;;;;23.33;12.73;;;;;;;3.82;51.31;102064.09;5083248;28;20040;-66
2021/03/07 02:11:27;;;;;;;20.10;12.65;;;;;;;3.73;51.56;102064.69;5066475;28;20061;-68
2021/03/07 02:13:56;;;;;;;18.40;11.98;;;;;;;4.00;51.02;102060.44;5063537;28;20047;-72
2021/03/07 02:16:24;;;;;;;20.65;11.27;;;;;;;4.07;50.93;102053.78;5064921;28;20052;-68
2021/03/07 02:18:53;;;;;;;24.52;12.63;;;;;;;3.96;51.15;102051.06;5066177;28;20044;-64
2021/03/07 02:21:23;;;;;;;20.50;12.45;;;;;;;3.80;51.53;102051.78;5064498;28;20055;-73
2021/03/07 02:23:59;;;;;;;;;;;;;;;3.61;52.42;102059.22;5081639;28;20048;-69
2021/03/07 02:26:26;;;;;;;22.75;12.75;;;;;;;3.43;53.08;102057.41;5066483;28;19920;-65
2021/03/07 02:28:55;;;;;;;21.73;12.48;;;;;;;3.66;52.76;102051.16;5066454;28;20059;-65
2021/03/07 02:31:25;;;;;;;27.48;12.98;;;;;;;3.81;52.17;102046.09;5065610;28;20063;-67
2021/03/07 02:33:59;;;;;;;;;;;;;;;3.55;52.47;102034.81;5086083;28;20047;-65
2021/03/07 02:36:31;;;;;;;21.75;12.43;;;;;;;3.24;53.40;102034.03;5067979;28;20382;-70
2021/03/07 02:39:01;;;;;;;19.60;12.23;;;;;;;3.35;53.50;102030.53;5085794;28;20511;-68
2021/03/07 02:41:32;;;;;;;21.40;12.57;;;;;;;3.68;53.08;102029.97;5067814;28;20059;-72
2021/03/07 02:44:03;;;;;;;20.80;12.68;;;;;;;3.19;53.67;102033.91;5067565;28;20406;-72
2021/03/07 02:46:31;;;;;;;22.17;12.65;;;;;;;3.32;53.76;102027.44;5085553;28;20055;-68
2021/03/07 02:49:08;;;;;;;20.27;12.88;;;;;;;3.55;53.32;102021.19;5068355;28;20040;-71
2021/03/07 02:51:36;;;;;;;19.67;12.55;;;;;;;3.90;52.41;102020.16;5067423;28;20474;-71
2021/03/07 02:54:07;;;;;;;19.73;12.13;;;;;;;3.91;52.22;102016.34;5066298;28;20052;-73
2021/03/07 02:56:36;;;;;;;22.42;12.98;;;;;;;4.03;52.05;102014.44;5066856;28;20052;-72
2021/03/07 02:59:09;;;;;;;18.75;12.15;;;;;;;3.98;51.96;102011.59;5085473;28;20043;-69
2021/03/07 03:01:38;;;;;;;18.98;11.77;;;;;;;3.80;52.49;102009.00;5067067;28;20052;-71
2021/03/07 03:04:08;;;;;;;25.00;13.20;;;;;;;3.83;52.35;102011.28;5085671;28;20043;-67
2021/03/07 03:06:36;;;;;;;20.50;12.98;;;;;;;3.60;52.74;102018.59;5034224;28;20048;-69
2021/03/07 03:09:05;;;;;;;26.88;13.15;;;;;;;3.36;53.49;102017.75;5050982;28;20401;-72
2021/03/07 03:11:35;;;;;;;22.05;12.48;;;;;;;3.41;53.46;102013.25;5084370;28;20059;-72
2021/03/07 03:14:02;;;;;;;19.92;12.57;;;;;;;3.64;53.03;102006.16;5067166;28;20052;-72
2021/03/07 03:16:33;;;;;;;20.80;13.27;;;;;;;3.64;53.15;102006.16;5067161;28;20052;-74
2021/03/07 03:19:05;;;;;;;22.90;12.90;;;;;;;3.86;52.60;102001.78;5084291;28;20044;-68
2021/03/07 03:21:32;;;;;;;20.95;12.40;;;;;;;3.85;52.69;102003.69;5066273;28;20052;-66
2021/03/07 03:24:00;;;;;;;22.00;12.93;;;;;;;3.75;52.92;102003.44;5050226;28;20178;-63
2021/03/07 03:26:28;;;;;;;21.83;13.27;;;;;;;3.60;53.09;102008.53;5066509;28;20402;-65
2021/03/07 03:33:24;;;;;;;20.50;12.63;;;;;;;3.41;53.80;101996.91;5082761;28;20387;-71
2021/03/07 03:35:51;;;;;;;;;;;;;;;3.27;54.20;101991.91;5064878;28;20281;-63
2021/03/07 03:38:20;;;;;;;22.58;13.38;;;;;;;3.31;54.16;101995.84;5082609;28;19920;-65
2021/03/07 03:40:53;;;;;;;19.45;12.95;;;;;;;3.25;54.38;101991.31;5066048;28;20063;-66
2021/03/07 03:43:21;;;;;;;19.65;12.27;;;;;;;3.49;53.67;101993.00;5066000;28;20048;-65
2021/03/07 03:45:51;;;;;;;19.85;12.88;;;;;;;3.64;53.21;101990.66;5066821;28;20050;-67
2021/03/07 03:48:21;;;;;;;25.70;13.75;;;;;;;3.62;53.32;101992.78;5066904;28;20048;-67
2021/03/07 03:50:48;;;;;;;;;;;;;;;3.84;52.63;101987.53;5066826;28;20055;-68
2021/03/07 03:53:20;;;;;;;20.13;12.70;;;;;;;3.71;52.42;101996.81;5065749;28;20386;-64
2021/03/07 03:55:49;;;;;;;19.23;12.45;;;;;;;3.75;52.51;101987.06;5084179;28;20052;-69
2021/03/07 03:58:22;;;;;;;22.90;13.32;;;;;;;3.58;52.99;101986.13;5049789;28;20059;-63
2021/03/07 04:00:51;;;;;;;23.38;12.80;;;;;;;3.41;53.42;101993.34;5066432;28;20051;-64
2021/03/07 04:03:19;;;;;;;21.40;13.60;;;;;;;3.33;54.01;101983.63;5082922;28;20048;-67
2021/03/07 04:05:48;;;;;;;;;;;;;;;2.91;55.42;101984.72;5066722;28;20458;-62
2021/03/07 04:08:17;;;;;;;22.95;13.60;;;;;;;2.84;55.87;101983.97;5065852;28;20030;-70
2021/03/07 04:10:46;;;;;;;21.75;13.35;;;;;;;3.24;55.15;101990.47;5083775;28;20063;-66
2021/03/07 04:13:22;;;;;;;24.98;13.52;;;;;;;3.11;54.74;101993.44;5083976;28;20195;-70
2021/03/07 04:15:50;;;;;;;24.60;14.02;;;;;;;3.04;54.95;101995.41;5064907;28;20530;-63
2021/03/07 04:18:22;;;;;;;21.55;12.70;;;;;;;3.00;55.42;101993.41;5083640;28;20048;-67
2021/03/07 04:20:50;;;;;;;20.60;13.10;;;;;;;3.25;54.65;101989.44;5083976;28;20048;-64
2021/03/07 04:23:17;;;;;;;23.05;13.60;;;;;;;3.44;54.03;101988.28;5065189;28;20070;-61
2021/03/07 04:25:44;;;;;;;21.85;13.38;;;;;;;3.00;54.93;101988.78;5083382;28;20040;-66
2021/03/07 04:28:12;;;;;;;27.73;14.60;;;;;;;3.08;55.11;101998.50;5064893;28;20055;-65
2021/03/07 04:30:40;;;;;;;23.70;14.75;;;;;;;3.14;55.16;102000.28;5083197;28;20470;-63
2021/03/07 04:33:07;;;;;;;22.30;13.77;;;;;;;2.97;55.20;101994.69;5083160;28;20055;-64
2021/03/07 04:35:35;;;;;;;26.85;14.80;;;;;;;3.06;55.50;101997.91;5048128;28;20120;-64
2021/03/07 04:38:07;;;;;;;22.90;13.40;;;;;;;3.22;54.74;101992.63;5065544;28;20048;-63
2021/03/07 04:40:36;;;;;;;22.98;12.82;;;;;;;3.20;55.08;101992.03;5064507;28;20044;-64
2021/03/07 04:43:04;;;;;;;28.33;14.20;;;;;;;3.10;55.20;101996.38;5082772;28;20215;-61
2021/03/07 04:45:31;;;;;;;21.20;13.07;;;;;;;2.88;55.33;101997.94;5064610;28;20255;-65
2021/03/07 04:47:59;;;;;;;23.60;14.15;;;;;;;2.80;55.79;101992.84;5064428;28;20055;-66
2021/03/07 04:50:27;;;;;;;22.42;14.32;;;;;;;2.95;55.26;102002.25;5082971;28;20044;-65
2021/03/07 04:52:54;;;;;;;22.45;14.38;;;;;;;2.71;55.73;101997.78;5064973;28;20387;-64
2021/03/07 04:55:21;;;;;;;27.17;14.60;;;;;;;2.70;55.84;102000.75;5065536;28;20048;-69
2021/03/07 04:57:48;;;;;;;23.42;14.13;;;;;;;2.41;56.44;102004.28;5030908;28;20063;-68
2021/03/07 05:00:16;;;;;;;22.88;14.18;;;;;;;2.33;57.25;102013.56;5083855;28;20044;-73
2021/03/07 05:02:43;;;;;;;23.73;14.60;;;;;;;2.33;56.72;101999.13;5048443;28;20054;-70
2021/03/07 05:05:11;;;;;;;28.42;15.63;;;;;;;2.46;56.07;102007.94;5082330;28;20059;-65
2021/03/07 05:07:38;;;;;;;21.98;14.15;;;;;;;2.50;56.12;102009.16;5082003;28;20486;-64
2021/03/07 05:10:06;;;;;;;22.48;14.20;;;;;;;2.68;55.78;102013.75;5082578;28;20051;-68
2021/03/07 05:12:34;;;;;;;21.70;13.93;;;;;;;2.69;55.60;102005.34;5083755;28;20387;-71
2021/03/07 05:19:27;;;;;;;21.85;14.35;;;;;;;2.65;56.50;102012.28;5082667;28;20478;-72
2021/03/07 05:21:54;;;;;;;23.42;14.43;;;;;;;2.94;55.62;102005.22;5081989;28;20051;-70
2021/03/07 05:24:21;;;;;;;24.92;15.52;;;;;;;2.86;55.67;102005.53;5082180;28;20052;-75
2021/03/07 05:26:48;;;;;;;22.65;14.55;;;;;;;2.90;55.63;102004.00;5047874;28;20521;-70
2021/03/07 05:29:15;;;;;;;24.58;14.80;;;;;;;2.65;56.39;102003.31;5082782;28;20048;-69
2021/03/07 05:31:42;;;;;;;24.80;15.27;;;;;;;2.27;58.40;102007.16;5081963;28;20055;-73
2021/03/07 05:34:10;;;;;;;25.25;15.80;;;;;;;2.38;57.86;102004.72;5063815;28;20051;-67
2021/03/07 05:36:37;;;;;;;27.15;15.63;;;;;;;2.57;57.52;102006.34;5064706;28;20047;-69
2021/03/07 05:39:04;;;;;;;24.10;15.13;;;;;;;2.44;57.79;101999.19;5081506;28;20070;-68
2021/03/07 05:41:34;;;;;;;26.15;15.80;;;;;;;2.57;57.73;102000.91;5081525;28;20071;-65
2021/03/07 05:48:30;;;;;;;24.67;14.52;;;;;;;2.50;57.22;102003.72;5081655;28;20040;-66
2021/03/07 05:50:57;;;;;;;24.13;14.85;;;;;;;2.79;57.00;102002.91;5064219;28;20059;-67
2021/03/07 05:53:24;;;;;;;24.92;15.68;;;;;;;2.87;56.55;102002.59;5082152;28;20043;-67
2021/03/07 05:55:51;;;;;;;26.42;15.57;;;;;;;2.54;57.51;102009.53;5047350;28;20058;-73
2021/03/07 05:58:19;;;;;;;25.75;15.00;;;;;;;2.68;56.60;101995.53;5063636;28;20052;-72
2021/03/07 06:00:46;;;;;;;21.70;14.32;;;;;;;2.58;56.90;102003.38;5064050;28;20047;-72
2021/03/07 06:03:14;;;;;;;26.52;15.02;;;;;;;2.34;56.98;102008.97;5081882;28;20040;-72
2021/03/07 06:05:49;;;;;;;25.15;14.82;;;;;;;2.22;57.62;102003.44;5065400;28;20063;-67
2021/03/07 06:08:17;;;;;;;25.08;16.17;;;;;;;2.21;57.85;101999.88;5064553;28;20056;-73
2021/03/07 06:10:44;;;;;;;28.80;15.93;;;;;;;2.15;57.87;102000.81;5064397;28;20044;-70
2021/03/07 06:13:12;;;;;;;23.17;14.70;;;;;;;2.23;57.54;101994.25;5082365;28;20048;-69
2021/03/07 06:15:49;;;;;;;24.45;14.80;;;;;;;2.39;57.64;101993.59;5081661;28;20054;-71
2021/03/07 06:18:23;;;;;;;23.77;14.20;;;;;;;2.36;57.50;101996.78;5082093;28;20064;-66
2021/03/07 06:20:52;;;;;;;22.35;14.50;;;;;;;2.46;57.20;101999.78;5081050;28;20056;-67
2021/03/07 06:23:35;;;;;;;24.60;15.73;;;;;;;2.69;57.20;101999.91;5081190;28;20044;-73
2021/03/07 06:26:09;;;;;;;24.13;14.65;;;;;;;2.95;55.92;101999.53;5063195;28;20048;-71
2021/03/07 06:28:37;;;;;;;25.55;15.93;;;;;;;2.76;56.23;101995.19;5063923;28;20048;-63
2021/03/07 06:31:30;;;;;;;26.20;15.90;;;;;;;2.72;56.82;101995.91;5081228;28;20067;-71
2021/03/07 06:33:58;;;;;;;24.65;15.98;;;;;;;2.61;56.40;102002.13;5064232;28;20059;-74
2021/03/07 06:36:27;;;;;;;28.73;15.93;;;;;;;2.57;56.83;101998.19;5063413;28;20040;-66
2021/03/07 06:38:59;;;;;;;24.15;15.75;;;;;;;2.30;57.86;102003.97;5063402;28;20056;-65
2021/03/07 06:41:29;;;;;;;25.90;16.15;;;;;;;2.49;57.26;102002.06;5063652;28;20067;-69
2021/03/07 06:44:09;;;;;;;26.70;15.73;;;;;;;2.46;57.37;101998.97;5081609;28;20048;-71
2021/03/07 06:46:39;;;;;;;25.10;16.25;;;;;;;2.39;57.57;101995.50;5081152;28;20277;-69
2021/03/07 06:49:07;;;;;;;31.88;17.35;;;;;;;2.59;57.43;101994.19;5080839;28;20040;-70
2021/03/07 06:51:35;;;;;;;25.10;15.43;;;;;;;2.47;57.35;101990.59;5063169;28;20062;-67
2021/03/07 06:54:19;;;;;;;25.38;16.00;;;;;;;2.34;57.75;101989.94;5080956;28;20044;-68
2021/03/07 06:56:50;;;;;;;27.75;16.63;;;;;;;2.37;57.54;101984.88;5063579;28;20044;-63
2021/03/07 06:59:23;;;;;;;28.75;16.48;;;;;;;2.18;58.30;101997.63;5081687;28;20509;-66
2021/03/07 07:01:54;;;;;;;26.98;17.00;;;;;;;1.98;58.40;101991.59;5063335;28;20445;-67
2021/03/07 07:04:23;;;;;;;29.13;17.90;;;;;;;1.87;58.57;101994.22;5063151;28;20047;-70
2021/03/07 07:07:05;;;;;;;28.85;17.73;;;;;;;1.93;58.80;101990.63;5080738;28;20055;-65
2021/03/07 07:09:32;;;;;;;26.30;16.65;;;;;;;2.13;58.03;101996.66;5081281;28;20052;-64
2021/03/07 07:12:01;;;;;;;28.90;17.17;;;;;;;1.99;58.01;101987.81;5047562;28;20059;-68
2021/03/07 07:19:12;;;;;;;28.45;17.05;;;;;;;2.18;58.21;101994.06;5006254;28;20093;-75
2021/03/07 07:21:40;;;;;;;25.60;16.33;;;;;;;2.09;57.93;101993.53;5022194;28;20046;-72
2021/03/07 07:24:09;;;;;;;31.40;17.67;;;;;;;1.81;58.46;101997.84;5022493;28;20056;-68
2021/03/07 07:26:36;;;;;;;26.83;16.70;;;;;;;1.86;58.93;101998.00;5022416;28;20046;-73
2021/03/07 07:29:03;;;;;;;29.05;17.27;;;;;;;2.02;58.43;101994.69;5023210;28;20049;-66
2021/03/07 07:36:01;;;;;;;29.13;17.17;;;;;;;1.93;58.65;101991.44;5006151;28;20077;-64
2021/03/07 07:38:30;;;;;;;30.52;17.60;;;;;;;2.26;58.01;102002.78;5005540;28;20060;-71
2021/03/07 07:40:58;;;;;;;28.67;17.48;;;;;;;2.55;57.32;102003.03;5007006;28;20074;-70
2021/03/07 07:43:26;;;;;;;26.08;17.73;;;;;;;2.67;56.32;101993.84;5020871;28;20065;-64
2021/03/07 07:50:31;;;;;;;33.03;18.90;;;;;;;2.53;57.07;101991.56;5021077;28;20459;-66
2021/03/07 07:53:27;;;;;;;26.42;17.70;;;;;;;2.71;56.40;101989.63;5005582;28;20060;-69
2021/03/07 07:55:58;;;;;;;30.45;17.38;;;;;;;2.92;55.81;101989.13;5051897;28;20056;-74
2021/03/07 07:58:35;;;;;;;30.35;18.45;;;;;;;2.81;55.37;101989.06;5082962;28;20070;-65
2021/03/07 08:01:07;;;;;;;29.73;16.83;;;;;;;2.73;55.42;101995.66;5084050;28;20394;-68
2021/03/07 08:03:34;;;;;;;27.33;16.98;;;;;;;2.81;54.95;101997.22;5083846;28;20410;-70
2021/03/07 08:06:09;;;;;;;31.52;17.10;;;;;;;2.76;54.65;101997.09;5083156;28;20048;-69
2021/03/07 08:08:39;;;;;;;25.98;15.90;;;;;;;2.79;54.90;102002.09;5083662;28;20063;-64
2021/03/07 08:11:08;;;;;;;29.73;17.80;;;;;;;3.03;54.51;101995.66;5083429;28;20051;-64
2021/03/07 08:13:35;;;;;;;26.13;16.75;;;;;;;3.15;53.33;101991.06;5082983;28;20051;-65
2021/03/07 08:16:06;;;;;;;28.17;17.73;;;;;;;3.38;52.70;101997.38;5064999;28;20048;-70
2021/03/07 08:18:55;;;;;;;27.65;16.40;;;;;;;2.92;53.08;101997.28;5082147;28;20054;-66
2021/03/07 08:21:24;;;;;;;25.50;16.55;;;;;;;2.92;52.67;101997.28;5082698;28;20055;-71
2021/03/07 08:23:59;;;;;;;25.30;15.80;;;;;;;3.17;52.81;101988.94;5081684;28;20052;-72
2021/03/07 08:26:48;;;;;;;26.90;17.33;;;;;;;2.80;53.18;101990.13;5083183;28;20048;-69
2021/03/07 08:29:48;;;;;;;33.63;17.47;;;;;;;3.28;52.72;101988.13;5083008;28;20044;-64
2021/03/07 08:32:44;;;;;;;26.75;17.40;;;;;;;3.35;51.93;101986.94;5082643;28;20517;-69
2021/03/07 08:35:19;;;;;;;25.08;16.38;;;;;;;3.61;51.57;101984.84;5082496;28;20135;-74
2021/03/07 08:38:13;;;;;;;24.00;15.68;;;;;;;3.52;51.60;101989.00;5065247;28;20054;-69
2021/03/07 08:40:42;;;;;;;30.98;15.57;;;;;;;3.47;51.10;101985.06;5083228;28;20048;-66
2021/03/07 08:43:22;;;;;;;23.90;15.52;;;;;;;3.75;50.52;101989.81;5064402;28;20368;-66
2021/03/07 08:50:05;;;;;;;24.55;16.25;;;;;;;4.28;49.79;101978.72;5063929;28;20223;-63
2021/03/07 08:52:37;;;;;;;25.92;15.52;;;;;;;4.23;49.01;101984.06;5064724;28;20059;-71
2021/03/07 08:55:04;;;;;;;26.48;15.98;;;;;;;4.16;49.17;101976.03;5079622;28;20055;-64
2021/03/07 08:57:31;;;;;;;23.15;14.57;;;;;;;4.29;48.31;101983.09;5082299;28;20052;-70
2021/03/07 09:00:04;;;;;;;23.73;13.75;;;;;;;4.27;47.80;101985.25;5059883;28;20051;-63
2021/03/07 09:07:11;;;;;;;27.58;14.40;;;;;;;4.37;49.24;101982.72;5092077;28;20052;-72
2021/03/07 09:09:43;;;;;;;20.73;14.05;;;;;;;4.52;47.82;101986.59;5073715;28;20051;-64
2021/03/07 09:12:14;;;;;;;21.85;14.38;;;;;;;4.55;48.01;101979.81;5073416;28;20471;-69
2021/03/07 09:14:42;;;;;;;23.20;14.65;;;;;;;4.48;48.22;101971.75;5091594;28;20048;-66
2021/03/07 09:17:23;;;;;;;22.00;13.35;;;;;;;4.60;48.10;101978.00;5091182;28;20487;-69
2021/03/07 09:19:51;;;;;;;22.05;13.70;;;;;;;4.45;47.76;101980.44;5072304;28;20048;-62
2021/03/07 09:22:23;;;;;;;22.60;14.95;;;;;;;4.84;49.17;101967.81;5091389;28;20482;-67
2021/03/07 09:25:00;;;;;;;22.63;14.38;;;;;;;4.81;46.23;101968.31;5073920;28;20501;-63
2021/03/07 09:27:31;;;;;;;20.30;13.30;;;;;;;4.57;45.73;101972.19;5091581;28;20040;-70
2021/03/07 09:30:18;;;;;;;21.70;13.80;;;;;;;4.94;46.95;101959.81;5091278;28;20047;-68
2021/03/07 09:32:48;;;;;;;20.98;13.45;;;;;;;5.24;44.99;101963.09;5056624;28;20048;-63
2021/03/07 09:35:34;;;;;;;19.77;12.82;;;;;;;5.03;45.35;101958.34;5089876;28;20067;-64
2021/03/07 09:38:07;;;;;;;19.80;12.68;;;;;;;5.01;45.17;101956.91;5091355;28;20383;-66
2021/03/07 09:40:36;;;;;;;22.60;13.40;;;;;;;4.95;45.10;101956.00;5085002;28;20478;-72
2021/03/07 09:43:06;;;;;;;19.50;13.00;;;;;;;4.63;44.53;101956.75;5072592;28;20394;-72
2021/03/07 09:45:47;;;;;;;20.48;13.27;;;;;;;4.55;44.74;101949.78;5073397;28;20055;-66
2021/03/07 09:48:20;;;;;;;21.67;12.48;;;;;;;4.60;44.57;101953.44;5072235;28;20048;-63
2021/03/07 09:50:48;;;;;;;19.13;11.80;;;;;;;4.62;43.95;101958.66;5069459;28;20135;-74
2021/03/07 09:53:27;;;;;;;19.17;11.98;;;;;;;4.97;43.38;101950.31;5090624;28;20055;-68
2021/03/07 09:55:54;;;;;;;17.05;11.50;;;;;;;5.07;43.23;101950.47;5055429;28;20051;-66
2021/03/07 09:58:21;;;;;;;19.20;11.88;;;;;;;5.06;42.88;101948.81;5087094;28;20059;-65
2021/03/07 10:00:51;;;;;;;18.73;12.27;;;;;;;4.55;43.66;101955.25;5089649;28;20044;-66
2021/03/07 10:03:21;;;;;;;23.90;12.65;;;;;;;4.51;43.59;101957.66;5090405;28;20055;-70
2021/03/07 10:06:11;;;;;;;18.10;12.07;;;;;;;4.96;43.62;101949.47;5072993;28;20212;-70
2021/03/07 10:08:40;;;;;;;21.08;11.95;;;;;;;5.27;43.05;101948.91;5054584;28;20429;-67
2021/03/07 10:11:15;;;;;;;18.92;11.70;;;;;;;5.46;42.21;101950.31;5090919;28;20048;-65
2021/03/07 10:13:42;;;;;;;17.63;12.05;;;;;;;5.51;42.50;101953.13;5091820;28;20475;-68
2021/03/07 10:16:09;;;;;;;21.83;12.20;;;;;;;5.03;42.37;101960.25;5092554;28;20056;-69
2021/03/07 10:18:39;;;;;;;19.60;11.15;;;;;;;5.28;41.49;101952.47;5091006;28;20055;-64
2021/03/07 10:21:06;;;;;;;16.30;9.98;;;;;;;5.34;41.13;101952.31;5072241;28;20059;-65
2021/03/07 10:23:34;;;;;;;18.30;11.18;;;;;;;5.49;40.96;101949.00;5072750;28;20055;-67
2021/03/07 10:26:04;;;;;;;19.52;11.00;;;;;;;5.51;41.05;101941.34;5090344;28;20052;-69
2021/03/07 10:28:34;;;;;;;19.15;11.48;;;;;;;5.39;41.53;101946.94;5090328;28;20383;-68
2021/03/07 10:31:13;;;;;;;17.58;11.18;;;;;;;5.64;40.81;101943.75;5072650;28;20048;-65
2021/03/07 10:33:40;;;;;;;18.75;11.27;;;;;;;5.67;41.08;101940.50;5090827;28;20051;-74
2021/03/07 10:36:22;;;;;;;18.13;11.35;;;;;;;5.61;40.91;101936.06;5072768;28;20048;-63
2021/03/07 10:39:10;;;;;;;20.88;11.38;;;;;;;5.83;40.15;101926.03;5059470;28;20040;-64
2021/03/07 10:41:38;;;;;;;18.77;11.70;;;;;;;5.61;40.15;101930.59;5085672;28;20067;-63
2021/03/07 10:44:07;;;;;;;18.73;10.90;;;;;;;5.70;40.27;101923.63;5080227;28;20052;-64
2021/03/07 10:46:36;;;;;;;16.27;11.40;;;;;;;5.70;40.40;101924.44;5082688;28;20075;-62
2021/03/07 10:49:19;;;;;;;16.65;11.15;;;;;;;5.96;40.53;101920.19;5083361;28;20044;-62
2021/03/07 10:51:56;;;;;;;20.52;11.73;;;;;;;5.88;39.80;101920.63;5065853;28;20059;-67
2021/03/07 10:54:25;;;;;;;16.30;10.88;;;;;;;6.01;39.60;101909.31;5065410;28;20509;-64
2021/03/07 10:56:53;;;;;;;17.02;11.55;;;;;;;6.14;39.56;101914.38;5084881;28;20044;-67
2021/03/07 10:59:20;;;;;;;16.50;10.85;;;;;;;6.21;38.87;101912.28;5083870;28;20053;-70
2021/03/07 11:01:47;;;;;;;18.15;10.68;;;;;;;6.22;38.54;101904.91;5084821;28;20044;-69
2021/03/07 11:04:24;;;;;;;17.90;10.93;;;;;;;6.47;38.95;101897.81;5085005;28;20055;-73
2021/03/07 11:06:51;;;;;;;18.70;11.00;;;;;;;6.63;38.50;101904.25;5084156;28;20048;-68
2021/03/07 11:09:18;;;;;;;15.77;10.57;;;;;;;6.13;38.75;101901.81;5083624;28;20568;-68
2021/03/07 11:11:45;;;;;;;16.70;10.57;;;;;;;6.19;39.27;101906.25;5049550;28;20056;-70
2021/03/07 11:14:12;;;;;;;15.23;10.48;;;;;;;6.33;38.96;101904.75;5066054;28;20044;-67
2021/03/07 11:16:45;;;;;;;15.85;10.80;;;;;;;6.21;38.55;101904.06;5049622;28;20048;-70
2021/03/07 11:19:19;;;;;;;17.00;11.00;;;;;;;6.17;39.04;101902.94;5066496;28;20067;-64
2021/03/07 11:21:49;;;;;;;16.40;11.13;;;;;;;6.38;38.50;101895.81;5084193;28;20055;-64
2021/03/07 11:24:16;;;;;;;16.02;10.65;;;;;;;6.46;38.61;101892.59;5065820;28;20044;-63
2021/03/07 11:26:43;;;;;;;16.75;11.23;;;;;;;6.51;38.53;101885.28;5083744;28;20398;-65
2021/03/07 11:29:10;;;;;;;16.30;10.40;;;;;;;6.72;38.16;101881.66;5065180;28;20051;-63
2021/03/07 11:31:37;;;;;;;15.98;10.82;;;;;;;6.40;38.08;101886.25;5065811;28;20059;-64
2021/03/07 11:34:04;;;;;;;15.55;10.52;;;;;;;6.30;38.40;101886.13;5083348;28;20056;-67
2021/03/07 11:41:09;;;;;;;17.35;11.02;;;;;;;6.54;38.48;101872.97;5082704;28;20048;-63
2021/03/07 11:43:36;;;;;;;15.68;9.82;;;;;;;6.39;38.28;101878.28;5083047;28;20044;-67
2021/03/07 11:46:03;;;;;;;16.77;10.85;;;;;;;6.40;38.49;101886.25;5082379;28;20474;-63
2021/03/07 11:48:30;;;;;;;19.38;11.00;;;;;;;6.71;38.05;101882.72;5082896;28;20052;-67
2021/03/07 11:50:57;;;;;;;16.85;11.02;;;;;;;6.67;37.80;101876.13;5083100;28;20390;-64
2021/03/07 11:53:24;;;;;;;16.23;10.65;;;;;;;6.57;38.34;101872.47;5083135;28;20044;-66
2021/03/07 11:55:51;;;;;;;17.33;11.18;;;;;;;6.75;38.06;101864.69;5083002;28;20055;-69
2021/03/07 11:58:20;;;;;;;17.27;11.15;;;;;;;6.82;37.84;101865.31;5083475;28;20071;-67
2021/03/07 12:00:47;;;;;;;16.83;11.07;;;;;;;6.68;38.42;101863.25;5083466;28;20394;-65
2021/03/07 12:03:15;;;;;;;20.00;12.23;;;;;;;6.85;38.02;101858.50;5064504;28;20048;-64
2021/03/07 12:05:42;;;;;;;15.05;11.23;;;;;;;7.16;37.46;101854.06;5064401;28;20059;-67
2021/03/07 12:08:09;;;;;;;17.95;11.40;;;;;;;7.43;37.38;101857.53;5082470;28;20055;-66
2021/03/07 12:10:36;;;;;;;16.88;11.32;;;;;;;7.32;37.34;101851.16;5064037;28;20052;-67
2021/03/07 12:13:03;;;;;;;21.73;14.35;;;;;;;7.68;36.70;101847.56;5083615;28;20044;-69
2021/03/07 12:15:30;;;;;;;15.00;11.45;;;;;;;7.64;36.64;101840.94;5081918;28;20178;-68
2021/03/07 12:17:58;;;;;;;16.70;11.23;;;;;;;7.34;37.08;101848.19;5048702;28;20059;-66
2021/03/07 12:20:25;;;;;;;16.83;11.20;;;;;;;7.09;37.39;101840.59;5082539;28;20062;-66
2021/03/07 12:22:53;;;;;;;18.13;11.40;;;;;;;7.30;37.27;101836.09;5082853;28;20044;-69